createdAt,value
2022-07-25T00:00:34.060Z,24.50
2022-07-25T00:03:01.067Z,24.50
2022-07-25T00:05:32.228Z,24.50
2022-07-25T00:08:03.042Z,24.50
2022-07-25T00:10:30.049Z,24.40
2022-07-25T00:12:58.290Z,24.40
2022-07-25T00:15:25.549Z,24.40
2022-07-25T00:17:53.037Z,24.30
2022-07-25T00:20:20.041Z,24.30
2022-07-25T00:22:48.657Z,24.30
2022-07-25T00:25:16.081Z,24.30
2022-07-25T00:27:46.176Z,24.30
2022-07-25T00:30:13.613Z,24.20
2022-07-25T00:32:41.032Z,24.20
2022-07-25T00:35:08.478Z,24.20
2022-07-25T00:37:35.483Z,24.20
2022-07-25T00:40:02.554Z,24.10
2022-07-25T00:42:30.106Z,24.10
2022-07-25T00:44:57.156Z,24.10
2022-07-25T00:47:24.217Z,24.00
2022-07-25T00:49:52.098Z,24.00
2022-07-25T00:52:20.560Z,24.00
2022-07-25T00:54:48.203Z,23.90
2022-07-25T00:57:16.142Z,23.90
2022-07-25T00:59:43.141Z,23.90
2022-07-25T01:02:10.347Z,23.90
2022-07-25T01:04:37.380Z,23.90
2022-07-25T01:07:04.548Z,23.80
2022-07-25T01:09:32.042Z,23.80
2022-07-25T01:11:59.532Z,23.80
2022-07-25T01:14:27.352Z,23.80
2022-07-25T01:16:55.645Z,23.80
2022-07-25T01:19:24.298Z,23.70
2022-07-25T01:21:52.531Z,23.70
2022-07-25T01:24:19.563Z,23.70
2022-07-25T01:26:46.573Z,23.70
2022-07-25T01:29:13.548Z,23.60
2022-07-25T01:31:41.749Z,23.60
2022-07-25T01:34:10.533Z,23.60
2022-07-25T01:36:38.054Z,23.60
2022-07-25T01:39:05.126Z,23.60
2022-07-25T01:41:32.284Z,23.50
2022-07-25T01:43:59.423Z,23.50
2022-07-25T01:46:26.537Z,23.50
2022-07-25T01:48:53.643Z,23.50
2022-07-25T01:51:21.066Z,23.40
2022-07-25T01:53:48.952Z,23.40
2022-07-25T01:56:16.130Z,23.40
2022-07-25T01:58:43.199Z,23.40
2022-07-25T02:01:11.360Z,23.30
2022-07-25T02:03:40.246Z,23.30
2022-07-25T02:06:08.514Z,23.30
2022-07-25T02:08:35.732Z,23.20
2022-07-25T02:11:03.591Z,23.20
2022-07-25T02:13:31.476Z,23.20
2022-07-25T02:15:58.687Z,23.20
2022-07-25T02:18:25.737Z,23.20
2022-07-25T02:20:52.723Z,23.20
2022-07-25T02:23:19.850Z,23.10
2022-07-25T02:25:46.935Z,23.10
2022-07-25T02:28:13.949Z,23.10
2022-07-25T02:30:41.129Z,23.10
2022-07-25T02:33:08.231Z,23.10
2022-07-25T02:35:35.818Z,23.10
2022-07-25T02:38:03.869Z,23.10
2022-07-25T02:40:32.539Z,23.00
2022-07-25T02:43:00.113Z,23.00
2022-07-25T02:45:27.150Z,23.00
2022-07-25T02:47:54.223Z,23.00
2022-07-25T02:50:22.260Z,23.00
2022-07-25T02:52:50.532Z,23.00
2022-07-25T02:55:17.552Z,23.00
2022-07-25T02:57:44.483Z,22.90
2022-07-25T03:00:12.229Z,22.90
2022-07-25T03:02:39.383Z,22.90
2022-07-25T03:05:08.396Z,22.90
2022-07-25T03:07:35.949Z,22.90
2022-07-25T03:10:08.583Z,22.90
2022-07-25T03:12:41.292Z,22.90
2022-07-25T03:15:09.609Z,22.80
2022-07-25T03:17:36.914Z,22.80
2022-07-25T03:20:06.004Z,22.80
2022-07-25T03:22:33.481Z,22.80
2022-07-25T03:25:00.681Z,22.80
2022-07-25T03:27:27.882Z,22.80
2022-07-25T03:29:54.937Z,22.80
2022-07-25T03:32:23.295Z,22.70
2022-07-25T03:34:50.303Z,22.80
2022-07-25T03:37:17.274Z,22.70
2022-07-25T03:39:44.434Z,22.70
2022-07-25T03:42:11.917Z,22.70
2022-07-25T03:44:39.201Z,22.70
2022-07-25T03:47:06.790Z,22.70
2022-07-25T03:49:35.294Z,22.70
2022-07-25T03:52:02.770Z,22.70
2022-07-25T03:54:29.827Z,22.70
2022-07-25T03:56:57.636Z,22.70
2022-07-25T03:59:24.639Z,22.70
2022-07-25T04:01:52.018Z,22.70
2022-07-25T04:04:19.699Z,22.70
2022-07-25T04:06:47.317Z,22.70
2022-07-25T04:09:15.745Z,22.70
2022-07-25T04:11:43.268Z,22.70
2022-07-25T04:14:11.300Z,22.70
2022-07-25T04:16:40.685Z,22.70
2022-07-25T04:19:08.739Z,22.70
2022-07-25T04:21:36.102Z,22.80
2022-07-25T04:24:03.366Z,22.80
2022-07-25T04:26:30.748Z,22.80
2022-07-25T04:28:59.662Z,22.80
2022-07-25T04:31:27.235Z,22.80
2022-07-25T04:33:54.337Z,22.90
2022-07-25T04:36:21.858Z,22.90
2022-07-25T04:38:48.890Z,22.90
2022-07-25T04:41:16.129Z,23.00
2022-07-25T04:43:48.264Z,23.00
2022-07-25T04:46:21.421Z,23.10
2022-07-25T04:48:49.572Z,23.10
2022-07-25T04:51:17.784Z,23.10
2022-07-25T04:53:45.485Z,23.20
2022-07-25T04:56:12.531Z,23.30
2022-07-25T04:58:39.638Z,23.30
2022-07-25T05:01:07.607Z,23.40
2022-07-25T05:03:35.590Z,23.50
2022-07-25T05:06:03.094Z,23.60
2022-07-25T05:08:30.890Z,23.70
2022-07-25T05:10:57.831Z,23.80
2022-07-25T05:13:24.929Z,23.80
2022-07-25T05:15:51.971Z,24.00
2022-07-25T05:18:19.001Z,24.10
2022-07-25T05:20:46.352Z,24.10
2022-07-25T05:23:13.700Z,24.30
2022-07-25T05:25:42.327Z,24.40
2022-07-25T05:28:09.551Z,24.50
2022-07-25T05:30:39.894Z,24.70
2022-07-25T05:33:07.532Z,24.80
2022-07-25T05:35:36.063Z,24.90
2022-07-25T05:38:03.182Z,25.00
2022-07-25T05:40:30.372Z,25.10
2022-07-25T05:43:02.529Z,25.30
2022-07-25T05:45:31.511Z,25.40
2022-07-25T05:47:59.998Z,25.50
2022-07-25T05:50:28.444Z,25.70
2022-07-25T05:52:55.601Z,25.80
2022-07-25T05:55:22.699Z,26.00
2022-07-25T05:57:49.817Z,26.10
2022-07-25T06:00:17.098Z,26.20
2022-07-25T06:02:44.289Z,26.40
2022-07-25T06:05:11.303Z,26.50
2022-07-25T06:07:38.332Z,26.60
2022-07-25T06:10:05.811Z,26.70
2022-07-25T06:12:36.504Z,26.90
2022-07-25T06:15:04.995Z,27.00
2022-07-25T06:17:33.014Z,27.20
2022-07-25T06:19:59.987Z,27.30
2022-07-25T06:22:26.987Z,27.40
2022-07-25T06:24:54.063Z,27.50
2022-07-25T06:27:23.936Z,27.70
2022-07-25T06:29:53.185Z,27.80
2022-07-25T06:32:20.239Z,27.90
2022-07-25T06:34:47.317Z,28.10
2022-07-25T06:37:14.596Z,28.20
2022-07-25T06:39:45.625Z,28.30
2022-07-25T06:42:13.581Z,28.40
2022-07-25T06:44:40.745Z,28.50
2022-07-25T06:47:12.761Z,28.60
2022-07-25T06:49:41.939Z,28.80
2022-07-25T06:52:10.751Z,28.90
2022-07-25T06:54:39.653Z,29.00
2022-07-25T06:57:06.821Z,29.10
2022-07-25T06:59:34.066Z,29.30
2022-07-25T07:02:01.137Z,29.40
2022-07-25T07:04:28.169Z,29.50
2022-07-25T07:06:55.682Z,29.70
2022-07-25T07:09:22.688Z,29.80
2022-07-25T07:11:49.734Z,30.00
2022-07-25T07:14:16.676Z,30.10
2022-07-25T07:16:44.961Z,30.30
2022-07-25T07:19:12.157Z,30.50
2022-07-25T07:21:39.407Z,30.70
2022-07-25T07:24:23.364Z,31.00
2022-07-25T07:26:52.159Z,31.10
2022-07-25T07:29:19.240Z,31.40
2022-07-25T07:31:46.357Z,31.60
2022-07-25T07:34:15.699Z,31.80
2022-07-25T07:36:43.994Z,32.00
2022-07-25T07:39:13.186Z,32.20
2022-07-25T07:41:41.557Z,32.40
2022-07-25T07:44:08.771Z,32.60
2022-07-25T07:46:36.796Z,32.80
2022-07-25T07:49:04.367Z,33.00
2022-07-25T07:51:33.398Z,33.10
2022-07-25T07:54:20.169Z,33.20
2022-07-25T07:56:47.989Z,33.40
2022-07-25T07:59:15.076Z,33.60
2022-07-25T08:01:42.075Z,33.70
2022-07-25T08:04:09.158Z,33.90
2022-07-25T08:06:36.790Z,34.10
2022-07-25T08:09:04.472Z,34.30
2022-07-25T08:11:31.866Z,34.40
2022-07-25T08:13:59.614Z,34.70
2022-07-25T08:16:26.559Z,34.80
2022-07-25T08:18:53.574Z,35.00
2022-07-25T08:21:20.775Z,35.20
2022-07-25T08:23:48.594Z,35.30
2022-07-25T08:26:15.971Z,35.50
2022-07-25T08:28:43.194Z,35.60
2022-07-25T08:31:10.828Z,35.70
2022-07-25T08:33:39.853Z,35.80
2022-07-25T08:36:08.325Z,35.90
2022-07-25T08:38:36.785Z,36.00
2022-07-25T08:41:06.490Z,36.10
2022-07-25T08:43:37.203Z,36.20
2022-07-25T08:46:06.241Z,36.40
2022-07-25T08:48:33.391Z,36.50
2022-07-25T08:51:02.698Z,36.70
2022-07-25T08:53:34.030Z,36.90
2022-07-25T08:56:11.141Z,37.00
2022-07-25T08:58:40.362Z,37.10
2022-07-25T09:01:08.378Z,37.30
2022-07-25T09:03:37.178Z,37.40
2022-07-25T09:06:22.151Z,37.60
2022-07-25T09:08:57.718Z,37.70
2022-07-25T09:11:33.345Z,37.80
2022-07-25T09:14:15.262Z,37.90
2022-07-25T09:16:44.383Z,38.00
2022-07-25T09:19:18.964Z,38.10
2022-07-25T09:21:57.863Z,38.20
2022-07-25T09:24:26.651Z,38.30
2022-07-25T09:26:55.351Z,38.40
2022-07-25T09:29:24.071Z,38.50
2022-07-25T09:31:52.486Z,38.60
2022-07-25T09:34:35.259Z,38.70
2022-07-25T09:37:05.651Z,38.80
2022-07-25T09:39:46.413Z,38.90
2022-07-25T09:42:36.471Z,39.00
2022-07-25T09:45:14.904Z,39.00
2022-07-25T09:47:54.962Z,39.10
2022-07-25T09:50:23.933Z,39.10
2022-07-25T09:52:53.328Z,39.10
2022-07-25T09:55:21.973Z,39.10
2022-07-25T09:57:49.827Z,39.10
2022-07-25T10:00:23.523Z,39.10
2022-07-25T10:02:56.474Z,39.10
2022-07-25T10:05:45.268Z,39.10
2022-07-25T10:08:12.641Z,39.10
2022-07-25T10:10:41.365Z,39.10
2022-07-25T10:13:31.192Z,39.10
2022-07-25T10:15:58.763Z,39.10
2022-07-25T10:18:28.212Z,39.00
2022-07-25T10:21:24.374Z,39.10
2022-07-25T10:24:07.964Z,39.10
2022-07-25T10:26:51.147Z,39.10
2022-07-25T10:29:18.362Z,39.00
2022-07-25T10:31:50.625Z,39.00
2022-07-25T10:34:33.253Z,39.00
2022-07-25T10:37:14.593Z,39.00
2022-07-25T10:39:48.230Z,38.90
2022-07-25T10:42:18.319Z,38.90
2022-07-25T10:44:50.805Z,38.90
2022-07-25T10:47:19.466Z,38.90
2022-07-25T10:50:22.019Z,38.90
2022-07-25T10:52:43.110Z,38.90
2022-07-25T10:55:10.307Z,38.90
2022-07-25T10:57:49.760Z,38.90
2022-07-25T11:00:24.466Z,38.90
2022-07-25T11:02:55.606Z,38.90
2022-07-25T11:05:22.684Z,39.00
2022-07-25T11:08:20.116Z,39.00
2022-07-25T11:10:41.684Z,39.00
2022-07-25T11:13:15.649Z,39.10
2022-07-25T11:15:44.023Z,39.10
2022-07-25T11:18:12.217Z,39.10
2022-07-25T11:20:39.349Z,39.10
2022-07-25T11:23:06.890Z,39.10
2022-07-25T11:25:33.884Z,39.00
2022-07-25T11:28:03.113Z,39.00
2022-07-25T11:30:32.347Z,38.90
2022-07-25T11:33:03.883Z,39.00
2022-07-25T11:35:33.129Z,38.90
2022-07-25T11:38:02.485Z,38.90
2022-07-25T11:40:31.572Z,38.80
2022-07-25T11:42:59.852Z,38.80
2022-07-25T11:45:35.607Z,38.80
2022-07-25T11:48:11.174Z,38.80
2022-07-25T11:50:43.385Z,38.80
2022-07-25T11:53:15.785Z,38.80
2022-07-25T11:55:44.336Z,38.80
2022-07-25T11:58:13.065Z,38.80
2022-07-25T12:00:44.142Z,38.80
2022-07-25T12:03:18.995Z,38.80
2022-07-25T12:05:47.846Z,38.70
2022-07-25T12:08:20.446Z,38.70
2022-07-25T12:10:49.302Z,38.60
2022-07-25T12:13:30.663Z,38.60
2022-07-25T12:15:59.975Z,38.50
2022-07-25T12:18:27.945Z,38.50
2022-07-25T12:20:55.317Z,38.50
2022-07-25T12:23:24.858Z,38.50
2022-07-25T12:25:57.795Z,38.60
2022-07-25T12:28:24.896Z,38.60
2022-07-25T12:30:56.460Z,38.60
2022-07-25T12:33:25.840Z,38.60
2022-07-25T12:35:55.080Z,38.60
2022-07-25T12:38:23.829Z,38.60
2022-07-25T12:40:51.217Z,38.60
2022-07-25T12:43:18.344Z,38.60
2022-07-25T12:45:45.437Z,38.50
2022-07-25T12:48:15.828Z,38.50
2022-07-25T12:50:43.589Z,38.50
2022-07-25T12:53:11.037Z,38.50
2022-07-25T12:55:39.459Z,38.50
2022-07-25T12:58:06.816Z,38.40
2022-07-25T13:00:35.223Z,38.40
2022-07-25T13:03:03.970Z,38.30
2022-07-25T13:05:33.018Z,38.30
2022-07-25T13:08:00.047Z,38.20
2022-07-25T13:10:27.432Z,38.20
2022-07-25T13:12:54.551Z,38.20
2022-07-25T13:15:23.435Z,38.20
2022-07-25T13:17:50.675Z,38.20
2022-07-25T13:20:17.878Z,38.20
2022-07-25T13:22:45.203Z,38.20
2022-07-25T13:25:14.235Z,38.20
2022-07-25T13:27:43.216Z,38.10
2022-07-25T13:30:11.739Z,38.10
2022-07-25T13:32:38.792Z,38.10
2022-07-25T13:35:06.262Z,38.10
2022-07-25T13:37:33.651Z,38.10
2022-07-25T13:40:00.996Z,38.00
2022-07-25T13:42:28.322Z,38.00
2022-07-25T13:44:55.717Z,37.90
2022-07-25T13:47:26.971Z,37.90
2022-07-25T13:49:58.291Z,37.90
2022-07-25T13:52:25.558Z,37.80
2022-07-25T13:54:52.500Z,37.80
2022-07-25T13:57:19.871Z,37.80
2022-07-25T13:59:46.972Z,37.80
2022-07-25T14:02:14.331Z,37.80
2022-07-25T14:04:44.988Z,37.70
2022-07-25T14:07:12.219Z,37.70
2022-07-25T14:09:39.285Z,37.70
2022-07-25T14:12:06.494Z,37.70
2022-07-25T14:14:34.963Z,37.70
2022-07-25T14:17:02.738Z,37.60
2022-07-25T14:19:31.099Z,37.70
2022-07-25T14:21:59.567Z,37.60
2022-07-25T14:24:26.629Z,37.60
2022-07-25T14:26:55.224Z,37.60
2022-07-25T14:29:24.876Z,37.60
2022-07-25T14:31:57.085Z,37.60
2022-07-25T14:34:24.206Z,37.60
2022-07-25T14:36:51.291Z,37.60
2022-07-25T14:39:18.341Z,37.60
2022-07-25T14:41:45.625Z,37.50
2022-07-25T14:44:12.649Z,37.50
2022-07-25T14:46:41.715Z,37.50
2022-07-25T14:49:11.572Z,37.50
2022-07-25T14:51:38.807Z,37.40
2022-07-25T14:54:05.945Z,37.40
2022-07-25T14:56:33.072Z,37.40
2022-07-25T14:59:00.589Z,37.40
2022-07-25T15:01:28.694Z,37.40
2022-07-25T15:03:57.188Z,37.40
2022-07-25T15:06:28.989Z,37.40
2022-07-25T15:08:56.736Z,37.40
2022-07-25T15:11:23.932Z,37.30
2022-07-25T15:13:52.840Z,37.20
2022-07-25T15:16:21.746Z,37.20
2022-07-25T15:19:14.682Z,37.10
2022-07-25T15:21:37.565Z,37.10
2022-07-25T15:24:07.833Z,37.00
2022-07-25T15:26:34.979Z,37.00
2022-07-25T15:29:02.118Z,37.00
2022-07-25T15:31:29.119Z,37.00
2022-07-25T15:33:56.206Z,37.00
2022-07-25T15:36:27.223Z,37.00
2022-07-25T15:38:57.076Z,36.90
2022-07-25T15:41:24.312Z,36.90
2022-07-25T15:43:51.394Z,36.90
2022-07-25T15:46:18.621Z,36.80
2022-07-25T15:48:45.889Z,36.80
2022-07-25T15:51:16.893Z,36.80
2022-07-25T15:53:44.179Z,36.80
2022-07-25T15:56:14.047Z,36.80
2022-07-25T15:58:42.423Z,36.80
2022-07-25T16:01:11.939Z,36.90
2022-07-25T16:03:39.795Z,36.90
2022-07-25T16:06:07.213Z,36.90
2022-07-25T16:08:36.148Z,36.90
2022-07-25T16:11:03.837Z,36.90
2022-07-25T16:13:31.187Z,36.90
2022-07-25T16:15:59.030Z,36.90
2022-07-25T16:18:27.091Z,36.90
2022-07-25T16:20:54.133Z,36.90
2022-07-25T16:23:23.199Z,36.90
2022-07-25T16:25:50.159Z,36.80
2022-07-25T16:28:17.183Z,36.80
2022-07-25T16:30:44.297Z,36.80
2022-07-25T16:33:11.927Z,36.80
2022-07-25T16:35:39.133Z,36.80
2022-07-25T16:38:06.476Z,36.80
2022-07-25T16:40:34.499Z,36.70
2022-07-25T16:43:01.656Z,36.70
2022-07-25T16:45:29.600Z,36.70
2022-07-25T16:47:56.943Z,36.70
2022-07-25T16:50:24.428Z,36.70
2022-07-25T16:52:53.721Z,36.70
2022-07-25T16:55:21.037Z,36.70
2022-07-25T16:57:47.940Z,36.60
2022-07-25T17:00:15.211Z,36.60
2022-07-25T17:02:43.992Z,36.60
2022-07-25T17:05:11.099Z,36.50
2022-07-25T17:07:38.949Z,36.50
2022-07-25T17:10:06.580Z,36.50
2022-07-25T17:12:33.642Z,36.40
2022-07-25T17:15:00.933Z,36.40
2022-07-25T17:17:28.342Z,36.30
2022-07-25T17:19:59.912Z,36.30
2022-07-25T17:22:28.556Z,36.20
2022-07-25T17:24:55.582Z,36.20
2022-07-25T17:27:23.119Z,36.10
2022-07-25T17:29:50.217Z,36.10
2022-07-25T17:32:17.537Z,36.00
2022-07-25T17:34:48.311Z,36.00
2022-07-25T17:37:15.507Z,35.90
2022-07-25T17:39:42.530Z,35.90
2022-07-25T17:42:09.601Z,35.80
2022-07-25T17:44:36.868Z,35.70
2022-07-25T17:47:04.252Z,35.70
2022-07-25T17:49:31.453Z,35.60
2022-07-25T17:51:58.679Z,35.60
2022-07-25T17:54:25.668Z,35.50
2022-07-25T17:56:53.887Z,35.50
2022-07-25T17:59:22.555Z,35.50
2022-07-25T18:01:50.420Z,35.40
2022-07-25T18:04:20.561Z,35.30
2022-07-25T18:06:47.681Z,35.30
2022-07-25T18:09:20.353Z,35.10
2022-07-25T18:11:49.720Z,34.90
2022-07-25T18:14:17.315Z,34.70
2022-07-25T18:16:45.582Z,34.60
2022-07-25T18:19:13.289Z,34.40
2022-07-25T18:21:40.392Z,34.30
2022-07-25T18:24:07.995Z,34.10
2022-07-25T18:26:35.307Z,33.90
2022-07-25T18:29:02.369Z,33.80
2022-07-25T18:31:30.824Z,33.70
2022-07-25T18:33:57.868Z,33.60
2022-07-25T18:36:25.036Z,33.40
2022-07-25T18:38:54.479Z,33.40
2022-07-25T18:41:30.615Z,33.30
2022-07-25T18:43:58.083Z,33.20
2022-07-25T18:46:25.978Z,33.10
2022-07-25T18:49:04.544Z,33.10
2022-07-25T18:51:37.678Z,33.00
2022-07-25T18:54:08.890Z,32.90
2022-07-25T18:56:37.220Z,32.80
2022-07-25T18:59:08.539Z,32.70
2022-07-25T19:01:56.033Z,32.60
2022-07-25T19:04:29.805Z,32.60
2022-07-25T19:07:11.455Z,32.50
2022-07-25T19:10:08.375Z,32.40
2022-07-25T19:12:38.506Z,32.30
2022-07-25T19:15:07.039Z,32.20
2022-07-25T19:17:40.407Z,32.10
2022-07-25T19:20:09.012Z,32.00
2022-07-25T19:22:36.575Z,31.90
2022-07-25T19:25:08.509Z,31.90
2022-07-25T19:27:36.204Z,31.70
2022-07-25T19:30:08.067Z,31.70
2022-07-25T19:32:38.364Z,31.60
2022-07-25T19:35:12.296Z,31.50
2022-07-25T19:37:42.311Z,31.40
2022-07-25T19:40:10.588Z,31.30
2022-07-25T19:42:38.544Z,31.30
2022-07-25T19:45:08.782Z,31.20
2022-07-25T19:47:39.209Z,31.10
2022-07-25T19:50:07.488Z,31.10
2022-07-25T19:52:36.726Z,31.10
2022-07-25T19:55:06.804Z,31.00
2022-07-25T19:57:37.846Z,31.00
2022-07-25T20:00:08.971Z,30.90
2022-07-25T20:02:40.927Z,30.90
2022-07-25T20:05:14.117Z,30.80
2022-07-25T20:07:44.029Z,30.80
2022-07-25T20:10:18.017Z,30.70
2022-07-25T20:12:45.799Z,30.70
2022-07-25T20:15:16.059Z,30.60
2022-07-25T20:17:43.992Z,30.60
2022-07-25T20:20:18.765Z,30.50
2022-07-25T20:22:49.184Z,30.40
2022-07-25T20:25:17.052Z,30.40
2022-07-25T20:27:45.621Z,30.40
2022-07-25T20:30:13.910Z,30.30
2022-07-25T20:32:41.407Z,30.40
2022-07-25T20:35:08.920Z,30.30
2022-07-25T20:37:36.805Z,30.30
2022-07-25T20:40:09.174Z,30.30
2022-07-25T20:42:38.771Z,30.30
2022-07-25T20:45:07.948Z,30.30
2022-07-25T20:47:36.455Z,30.20
2022-07-25T20:50:04.808Z,30.20
2022-07-25T20:52:34.750Z,30.20
2022-07-25T20:55:06.780Z,30.20
2022-07-25T20:57:35.374Z,30.20
2022-07-25T21:00:03.676Z,30.20
2022-07-25T21:02:31.208Z,30.10
2022-07-25T21:05:00.424Z,30.10
2022-07-25T21:07:30.910Z,30.10
2022-07-25T21:09:58.602Z,30.10
2022-07-25T21:12:29.612Z,30.00
2022-07-25T21:14:59.673Z,30.00
2022-07-25T21:17:27.143Z,30.00
2022-07-25T21:19:54.584Z,29.90
2022-07-25T21:22:22.240Z,29.90
2022-07-25T21:24:50.027Z,29.80
2022-07-25T21:27:18.151Z,29.80
2022-07-25T21:29:49.451Z,29.80
2022-07-25T21:32:17.563Z,29.70
2022-07-25T21:34:49.455Z,29.60
2022-07-25T21:37:17.244Z,29.60
2022-07-25T21:39:44.889Z,29.50
2022-07-25T21:42:12.393Z,29.40
2022-07-25T21:44:41.258Z,29.40
2022-07-25T21:47:09.946Z,29.40
2022-07-25T21:49:56.633Z,29.30
2022-07-25T21:52:34.822Z,29.30
2022-07-25T21:55:04.561Z,29.30
2022-07-25T21:57:32.302Z,29.30
2022-07-25T22:00:02.039Z,29.30
2022-07-25T22:02:29.610Z,29.30
2022-07-25T22:04:57.057Z,29.30
2022-07-25T22:07:25.622Z,29.40
2022-07-25T22:09:53.285Z,29.30
2022-07-25T22:12:23.702Z,29.40
2022-07-25T22:14:51.094Z,29.30
2022-07-25T22:17:18.514Z,29.30
2022-07-25T22:19:45.904Z,29.30
2022-07-25T22:22:13.894Z,29.20
2022-07-25T22:24:46.308Z,29.20
2022-07-25T22:27:14.167Z,29.10
2022-07-25T22:29:46.457Z,29.00
2022-07-25T22:32:13.796Z,29.00
2022-07-25T22:34:41.267Z,29.00
2022-07-25T22:37:08.883Z,28.90
2022-07-25T22:39:36.294Z,28.90
2022-07-25T22:42:03.572Z,28.90
2022-07-25T22:44:34.083Z,28.80
2022-07-25T22:47:03.156Z,28.70
2022-07-25T22:49:34.213Z,28.70
2022-07-25T22:52:01.751Z,28.60
2022-07-25T22:54:29.143Z,28.60
2022-07-25T22:56:56.606Z,28.60
2022-07-25T22:59:23.974Z,28.60
2022-07-25T23:01:52.258Z,28.50
2022-07-25T23:04:22.793Z,28.50
2022-07-25T23:06:50.251Z,28.50
2022-07-25T23:09:17.601Z,28.50
2022-07-25T23:11:44.932Z,28.40
2022-07-25T23:14:15.473Z,28.40
2022-07-25T23:16:43.117Z,28.40
2022-07-25T23:19:10.873Z,28.40
2022-07-25T23:21:40.134Z,28.40
2022-07-25T23:24:11.042Z,28.40
2022-07-25T23:26:38.441Z,28.40
2022-07-25T23:29:07.525Z,28.40
2022-07-25T23:31:35.648Z,28.30
2022-07-25T23:34:04.970Z,28.30
2022-07-25T23:36:35.189Z,28.30
2022-07-25T23:39:02.675Z,28.30
2022-07-25T23:41:34.597Z,28.20
2022-07-25T23:44:05.491Z,28.20
2022-07-25T23:46:35.617Z,28.20
2022-07-25T23:49:03.274Z,28.10
2022-07-25T23:51:34.605Z,28.10
2022-07-25T23:54:02.432Z,28.10
2022-07-25T23:56:30.171Z,28.00
2022-07-25T23:58:58.042Z,28.00
